sensor_id;sensor_type;location;lat;lon;timestamp;pressure;altitude;pressure_sealevel;temperature;humidity
43298;BME280;28892;55.640;37.532;2023-04-19T00:00:43;99627.28;;;12.95;34.32
43298;BME280;28892;55.640;37.532;2023-04-19T00:03:10;99644.28;;;12.94;34.34
43298;BME280;28892;55.640;37.532;2023-04-19T00:05:36;99626.13;;;12.83;34.12
43298;BME280;28892;55.640;37.532;2023-04-19T00:08:06;99628.31;;;12.79;34.38
43298;BME280;28892;55.640;37.532;2023-04-19T00:10:33;99635.75;;;12.84;34.62
43298;BME280;28892;55.640;37.532;2023-04-19T00:13:01;99634.22;;;12.75;34.52
43298;BME280;28892;55.640;37.532;2023-04-19T00:15:27;99632.00;;;12.78;34.54
43298;BME280;28892;55.640;37.532;2023-04-19T00:17:53;99632.19;;;12.77;34.35
43298;BME280;28892;55.640;37.532;2023-04-19T00:20:20;99620.25;;;12.88;33.80
43298;BME280;28892;55.640;37.532;2023-04-19T00:22:46;99638.41;;;12.84;34.03
43298;BME280;28892;55.640;37.532;2023-04-19T00:25:15;99636.06;;;12.74;34.55
43298;BME280;28892;55.640;37.532;2023-04-19T00:27:41;99627.53;;;12.79;34.33
43298;BME280;28892;55.640;37.532;2023-04-19T00:30:07;99631.09;;;12.71;34.50
43298;BME280;28892;55.640;37.532;2023-04-19T00:32:33;99638.81;;;12.66;34.23
43298;BME280;28892;55.640;37.532;2023-04-19T00:34:59;99626.69;;;12.63;34.58
43298;BME280;28892;55.640;37.532;2023-04-19T00:37:25;99622.47;;;12.54;34.62
43298;BME280;28892;55.640;37.532;2023-04-19T00:39:51;99638.06;;;12.57;34.69
43298;BME280;28892;55.640;37.532;2023-04-19T00:42:17;99627.72;;;12.62;34.52
43298;BME280;28892;55.640;37.532;2023-04-19T00:44:46;99633.97;;;12.39;34.64
43298;BME280;28892;55.640;37.532;2023-04-19T00:47:14;99636.09;;;12.44;34.88
43298;BME280;28892;55.640;37.532;2023-04-19T00:49:40;99644.31;;;12.49;35.04
43298;BME280;28892;55.640;37.532;2023-04-19T00:52:06;99644.69;;;12.46;35.36
43298;BME280;28892;55.640;37.532;2023-04-19T00:54:36;99634.44;;;12.43;34.81
43298;BME280;28892;55.640;37.532;2023-04-19T00:57:03;99632.31;;;12.38;35.41
43298;BME280;28892;55.640;37.532;2023-04-19T00:59:29;99644.44;;;12.41;35.39
43298;BME280;28892;55.640;37.532;2023-04-19T01:01:55;99639.28;;;12.39;35.40
43298;BME280;28892;55.640;37.532;2023-04-19T01:04:22;99648.19;;;12.47;35.37
43298;BME280;28892;55.640;37.532;2023-04-19T01:06:48;99647.44;;;12.68;34.88
43298;BME280;28892;55.640;37.532;2023-04-19T01:09:13;99644.13;;;12.66;34.90
43298;BME280;28892;55.640;37.532;2023-04-19T01:11:40;99650.28;;;12.51;35.03
43298;BME280;28892;55.640;37.532;2023-04-19T01:14:07;99648.72;;;12.57;35.43
43298;BME280;28892;55.640;37.532;2023-04-19T01:16:33;99646.34;;;12.62;35.04
43298;BME280;28892;55.640;37.532;2023-04-19T01:19:01;99637.44;;;12.70;34.47
43298;BME280;28892;55.640;37.532;2023-04-19T01:21:27;99659.19;;;12.58;34.85
43298;BME280;28892;55.640;37.532;2023-04-19T01:23:57;99635.78;;;12.54;34.65
43298;BME280;28892;55.640;37.532;2023-04-19T01:26:23;99636.72;;;12.31;35.59
43298;BME280;28892;55.640;37.532;2023-04-19T01:28:49;99647.91;;;12.41;35.07
43298;BME280;28892;55.640;37.532;2023-04-19T01:31:15;99640.66;;;12.50;34.52
43298;BME280;28892;55.640;37.532;2023-04-19T01:33:42;99645.06;;;12.43;34.94
43298;BME280;28892;55.640;37.532;2023-04-19T01:36:09;99641.94;;;12.39;34.95
43298;BME280;28892;55.640;37.532;2023-04-19T01:38:35;99650.66;;;12.33;34.96
43298;BME280;28892;55.640;37.532;2023-04-19T01:41:01;99647.63;;;12.21;35.56
43298;BME280;28892;55.640;37.532;2023-04-19T01:43:27;99644.44;;;12.26;35.09
43298;BME280;28892;55.640;37.532;2023-04-19T01:45:52;99655.41;;;12.23;35.48
43298;BME280;28892;55.640;37.532;2023-04-19T01:48:19;99645.78;;;12.22;35.29
43298;BME280;28892;55.640;37.532;2023-04-19T01:50:45;99644.16;;;12.36;34.92
43298;BME280;28892;55.640;37.532;2023-04-19T01:53:12;99635.97;;;12.22;35.09
43298;BME280;28892;55.640;37.532;2023-04-19T01:55:41;99633.22;;;12.15;35.45
43298;BME280;28892;55.640;37.532;2023-04-19T01:58:07;99636.06;;;12.14;35.51
43298;BME280;28892;55.640;37.532;2023-04-19T02:00:35;99631.94;;;12.26;35.03
43298;BME280;28892;55.640;37.532;2023-04-19T02:03:04;99633.41;;;12.29;34.81
43298;BME280;28892;55.640;37.532;2023-04-19T02:05:30;99635.34;;;12.20;35.03
43298;BME280;28892;55.640;37.532;2023-04-19T02:07:56;99645.78;;;12.22;35.00
43298;BME280;28892;55.640;37.532;2023-04-19T02:10:22;99634.50;;;12.20;34.99
43298;BME280;28892;55.640;37.532;2023-04-19T02:12:48;99636.59;;;12.09;35.08
43298;BME280;28892;55.640;37.532;2023-04-19T02:15:14;99644.44;;;12.41;34.61
43298;BME280;28892;55.640;37.532;2023-04-19T02:17:40;99650.00;;;12.16;35.04
43298;BME280;28892;55.640;37.532;2023-04-19T02:20:06;99638.09;;;12.12;34.86
43298;BME280;28892;55.640;37.532;2023-04-19T02:22:33;99636.44;;;12.11;34.82
43298;BME280;28892;55.640;37.532;2023-04-19T02:25:02;99637.03;;;11.98;35.34
43298;BME280;28892;55.640;37.532;2023-04-19T02:27:31;99654.78;;;11.97;34.90
43298;BME280;28892;55.640;37.532;2023-04-19T02:29:57;99648.28;;;12.00;35.05
43298;BME280;28892;55.640;37.532;2023-04-19T02:32:24;99649.84;;;11.94;35.48
43298;BME280;28892;55.640;37.532;2023-04-19T02:34:50;99646.47;;;12.00;34.90
43298;BME280;28892;55.640;37.532;2023-04-19T02:37:17;99644.31;;;11.81;35.35
43298;BME280;28892;55.640;37.532;2023-04-19T02:39:43;99648.53;;;11.75;35.77
43298;BME280;28892;55.640;37.532;2023-04-19T02:42:11;99654.19;;;11.72;35.46
43298;BME280;28892;55.640;37.532;2023-04-19T02:45:44;99653.19;;;11.73;35.51
43298;BME280;28892;55.640;37.532;2023-04-19T02:48:15;99647.72;;;11.90;35.50
43298;BME280;28892;55.640;37.532;2023-04-19T02:50:44;99658.41;;;12.05;35.29
43298;BME280;28892;55.640;37.532;2023-04-19T02:53:10;99656.13;;;11.78;35.60
43298;BME280;28892;55.640;37.532;2023-04-19T02:55:36;99639.28;;;11.71;35.44
43298;BME280;28892;55.640;37.532;2023-04-19T02:58:11;99648.09;;;11.63;35.63
43298;BME280;28892;55.640;37.532;2023-04-19T03:00:52;99650.75;;;11.63;35.85
43298;BME280;28892;55.640;37.532;2023-04-19T03:03:24;99656.75;;;11.65;36.33
43298;BME280;28892;55.640;37.532;2023-04-19T03:05:51;99655.06;;;11.64;35.87
43298;BME280;28892;55.640;37.532;2023-04-19T03:08:20;99653.56;;;11.85;35.75
43298;BME280;28892;55.640;37.532;2023-04-19T03:10:49;99639.31;;;11.63;36.20
43298;BME280;28892;55.640;37.532;2023-04-19T03:13:15;99661.06;;;11.66;36.17
43298;BME280;28892;55.640;37.532;2023-04-19T03:15:44;99663.81;;;11.73;35.77
43298;BME280;28892;55.640;37.532;2023-04-19T03:18:10;99650.16;;;11.76;35.97
43298;BME280;28892;55.640;37.532;2023-04-19T03:20:38;99650.44;;;11.66;36.16
43298;BME280;28892;55.640;37.532;2023-04-19T03:23:07;99655.78;;;11.81;35.90
43298;BME280;28892;55.640;37.532;2023-04-19T03:25:35;99659.63;;;11.79;36.12
43298;BME280;28892;55.640;37.532;2023-04-19T03:28:18;99665.53;;;11.66;36.31
43298;BME280;28892;55.640;37.532;2023-04-19T03:31:19;99657.31;;;11.76;36.39
43298;BME280;28892;55.640;37.532;2023-04-19T03:33:51;99658.09;;;11.84;36.44
43298;BME280;28892;55.640;37.532;2023-04-19T03:36:20;99666.09;;;11.99;36.21
43298;BME280;28892;55.640;37.532;2023-04-19T03:38:46;99661.28;;;12.18;35.80
43298;BME280;28892;55.640;37.532;2023-04-19T03:41:21;99666.25;;;12.21;35.98
43298;BME280;28892;55.640;37.532;2023-04-19T03:43:54;99663.94;;;12.18;35.84
43298;BME280;28892;55.640;37.532;2023-04-19T03:46:23;99657.59;;;12.19;35.92
43298;BME280;28892;55.640;37.532;2023-04-19T03:48:49;99661.94;;;12.20;35.57
43298;BME280;28892;55.640;37.532;2023-04-19T03:51:18;99661.09;;;12.20;35.71
43298;BME280;28892;55.640;37.532;2023-04-19T03:53:44;99662.50;;;12.31;35.47
43298;BME280;28892;55.640;37.532;2023-04-19T03:56:13;99675.34;;;12.42;35.61
43298;BME280;28892;55.640;37.532;2023-04-19T03:58:39;99663.75;;;12.20;35.63
43298;BME280;28892;55.640;37.532;2023-04-19T04:01:06;99671.03;;;12.26;35.45
43298;BME280;28892;55.640;37.532;2023-04-19T04:03:38;99655.50;;;12.44;35.18
43298;BME280;28892;55.640;37.532;2023-04-19T04:06:11;99658.72;;;12.40;35.68
43298;BME280;28892;55.640;37.532;2023-04-19T04:08:43;99671.31;;;12.46;35.62
43298;BME280;28892;55.640;37.532;2023-04-19T04:11:09;99664.16;;;12.47;35.15
43298;BME280;28892;55.640;37.532;2023-04-19T04:13:35;99664.25;;;12.38;35.55
43298;BME280;28892;55.640;37.532;2023-04-19T04:16:14;99678.66;;;12.59;35.01
43298;BME280;28892;55.640;37.532;2023-04-19T04:18:41;99669.44;;;12.62;35.38
43298;BME280;28892;55.640;37.532;2023-04-19T04:21:10;99673.31;;;12.74;35.31
43298;BME280;28892;55.640;37.532;2023-04-19T04:23:39;99664.97;;;12.77;35.17
43298;BME280;28892;55.640;37.532;2023-04-19T04:26:10;99664.47;;;12.89;34.63
43298;BME280;28892;55.640;37.532;2023-04-19T04:28:56;99668.06;;;12.96;34.44
43298;BME280;28892;55.640;37.532;2023-04-19T04:31:27;99683.84;;;12.97;34.67
43298;BME280;28892;55.640;37.532;2023-04-19T04:33:54;99679.03;;;13.08;34.40
43298;BME280;28892;55.640;37.532;2023-04-19T04:36:21;99681.16;;;13.12;34.37
43298;BME280;28892;55.640;37.532;2023-04-19T04:38:51;99674.56;;;13.08;34.74
43298;BME280;28892;55.640;37.532;2023-04-19T04:41:20;99685.38;;;13.44;34.50
43298;BME280;28892;55.640;37.532;2023-04-19T04:43:47;99687.06;;;13.66;33.96
43298;BME280;28892;55.640;37.532;2023-04-19T04:46:19;99664.75;;;13.74;33.81
43298;BME280;28892;55.640;37.532;2023-04-19T04:48:46;99682.97;;;13.71;33.81
43298;BME280;28892;55.640;37.532;2023-04-19T04:51:12;99672.47;;;13.84;33.57
43298;BME280;28892;55.640;37.532;2023-04-19T04:53:43;99677.06;;;13.97;33.45
43298;BME280;28892;55.640;37.532;2023-04-19T04:56:09;99680.56;;;13.97;33.27
43298;BME280;28892;55.640;37.532;2023-04-19T04:58:36;99692.44;;;14.23;32.93
43298;BME280;28892;55.640;37.532;2023-04-19T05:01:05;99685.31;;;14.31;32.81
43298;BME280;28892;55.640;37.532;2023-04-19T05:03:36;99678.47;;;14.21;32.60
43298;BME280;28892;55.640;37.532;2023-04-19T05:06:05;99689.22;;;14.35;33.04
43298;BME280;28892;55.640;37.532;2023-04-19T05:08:37;99685.19;;;14.46;32.43
43298;BME280;28892;55.640;37.532;2023-04-19T05:11:19;99701.19;;;14.39;32.65
43298;BME280;28892;55.640;37.532;2023-04-19T05:13:45;99697.91;;;14.44;32.76
43298;BME280;28892;55.640;37.532;2023-04-19T05:16:12;99702.63;;;14.42;32.69
43298;BME280;28892;55.640;37.532;2023-04-19T05:18:46;99703.69;;;14.76;32.09
43298;BME280;28892;55.640;37.532;2023-04-19T05:21:12;99682.13;;;14.84;31.97
43298;BME280;28892;55.640;37.532;2023-04-19T05:23:39;99698.41;;;14.89;31.94
43298;BME280;28892;55.640;37.532;2023-04-19T05:26:06;99705.19;;;14.92;32.06
43298;BME280;28892;55.640;37.532;2023-04-19T05:28:32;99705.09;;;15.20;31.95
43298;BME280;28892;55.640;37.532;2023-04-19T05:31:09;99715.63;;;15.35;31.48
43298;BME280;28892;55.640;37.532;2023-04-19T05:33:44;99708.06;;;15.46;31.31
43298;BME280;28892;55.640;37.532;2023-04-19T05:36:10;99706.59;;;15.43;31.45
43298;BME280;28892;55.640;37.532;2023-04-19T05:38:36;99716.50;;;15.63;31.25
43298;BME280;28892;55.640;37.532;2023-04-19T05:41:04;99702.72;;;15.66;31.00
43298;BME280;28892;55.640;37.532;2023-04-19T05:43:30;99711.16;;;15.56;30.97
43298;BME280;28892;55.640;37.532;2023-04-19T05:45:56;99705.81;;;15.70;30.98
43298;BME280;28892;55.640;37.532;2023-04-19T05:48:25;99705.59;;;15.71;31.16
43298;BME280;28892;55.640;37.532;2023-04-19T05:51:18;99712.66;;;16.06;30.77
43298;BME280;28892;55.640;37.532;2023-04-19T05:54:02;99709.31;;;16.51;30.44
43298;BME280;28892;55.640;37.532;2023-04-19T05:56:33;99698.84;;;16.29;29.99
43298;BME280;28892;55.640;37.532;2023-04-19T05:59:04;99691.41;;;16.45;30.08
43298;BME280;28892;55.640;37.532;2023-04-19T06:01:41;99709.53;;;16.50;29.63
43298;BME280;28892;55.640;37.532;2023-04-19T06:04:07;99691.56;;;16.70;29.36
43298;BME280;28892;55.640;37.532;2023-04-19T06:06:48;99714.69;;;16.51;29.38
43298;BME280;28892;55.640;37.532;2023-04-19T06:09:36;99725.19;;;16.32;29.92
43298;BME280;28892;55.640;37.532;2023-04-19T06:12:10;99716.72;;;16.62;29.74
43298;BME280;28892;55.640;37.532;2023-04-19T06:14:37;99710.47;;;16.82;28.99
43298;BME280;28892;55.640;37.532;2023-04-19T06:17:24;99718.47;;;16.96;28.46
43298;BME280;28892;55.640;37.532;2023-04-19T06:19:51;99712.31;;;16.88;28.63
43298;BME280;28892;55.640;37.532;2023-04-19T06:22:17;99728.16;;;17.03;28.07
43298;BME280;28892;55.640;37.532;2023-04-19T06:24:44;99719.09;;;16.91;27.88
43298;BME280;28892;55.640;37.532;2023-04-19T06:27:11;99721.78;;;16.91;27.71
43298;BME280;28892;55.640;37.532;2023-04-19T06:29:37;99728.66;;;16.60;28.09
43298;BME280;28892;55.640;37.532;2023-04-19T06:32:06;99730.47;;;16.80;27.63
43298;BME280;28892;55.640;37.532;2023-04-19T06:34:35;99707.31;;;16.99;27.72
43298;BME280;28892;55.640;37.532;2023-04-19T06:37:00;99728.13;;;17.10;27.68
43298;BME280;28892;55.640;37.532;2023-04-19T06:39:29;99740.56;;;16.84;27.54
43298;BME280;28892;55.640;37.532;2023-04-19T06:41:57;99731.66;;;17.04;27.53
43298;BME280;28892;55.640;37.532;2023-04-19T06:44:31;99707.84;;;17.28;27.42
43298;BME280;28892;55.640;37.532;2023-04-19T06:47:00;99729.94;;;17.23;26.98
43298;BME280;28892;55.640;37.532;2023-04-19T06:49:25;99727.56;;;17.40;26.95
43298;BME280;28892;55.640;37.532;2023-04-19T06:51:51;99728.22;;;17.36;26.61
43298;BME280;28892;55.640;37.532;2023-04-19T06:54:17;99710.44;;;17.41;26.79
43298;BME280;28892;55.640;37.532;2023-04-19T06:56:47;99723.28;;;17.33;26.85
43298;BME280;28892;55.640;37.532;2023-04-19T06:59:19;99719.41;;;17.60;26.54
43298;BME280;28892;55.640;37.532;2023-04-19T07:01:46;99723.91;;;17.67;26.49
43298;BME280;28892;55.640;37.532;2023-04-19T07:04:15;99727.31;;;17.49;26.91
43298;BME280;28892;55.640;37.532;2023-04-19T07:06:47;99723.13;;;17.59;26.00
43298;BME280;28892;55.640;37.532;2023-04-19T07:09:17;99723.81;;;17.48;25.79
43298;BME280;28892;55.640;37.532;2023-04-19T07:11:43;99738.50;;;17.39;26.30
43298;BME280;28892;55.640;37.532;2023-04-19T07:14:13;99725.63;;;17.15;25.77
43298;BME280;28892;55.640;37.532;2023-04-19T07:16:41;99733.38;;;16.65;27.01
43298;BME280;28892;55.640;37.532;2023-04-19T07:19:07;99709.59;;;17.09;26.72
43298;BME280;28892;55.640;37.532;2023-04-19T07:21:33;99707.31;;;17.44;26.61
43298;BME280;28892;55.640;37.532;2023-04-19T07:24:00;99720.38;;;17.98;26.25
43298;BME280;28892;55.640;37.532;2023-04-19T07:26:26;99727.91;;;18.15;25.36
43298;BME280;28892;55.640;37.532;2023-04-19T07:28:52;99717.06;;;18.03;25.67
43298;BME280;28892;55.640;37.532;2023-04-19T07:31:20;99722.47;;;17.96;26.11
43298;BME280;28892;55.640;37.532;2023-04-19T07:33:46;99716.97;;;18.17;26.01
43298;BME280;28892;55.640;37.532;2023-04-19T07:36:15;99722.28;;;18.42;25.84
43298;BME280;28892;55.640;37.532;2023-04-19T07:38:43;99717.41;;;18.57;25.48
43298;BME280;28892;55.640;37.532;2023-04-19T07:41:09;99701.88;;;18.60;25.54
43298;BME280;28892;55.640;37.532;2023-04-19T07:43:35;99715.38;;;18.53;25.36
43298;BME280;28892;55.640;37.532;2023-04-19T07:46:10;99706.97;;;18.87;25.12
43298;BME280;28892;55.640;37.532;2023-04-19T07:48:43;99714.13;;;18.74;25.13
43298;BME280;28892;55.640;37.532;2023-04-19T07:51:21;99716.03;;;19.42;24.78
43298;BME280;28892;55.640;37.532;2023-04-19T07:53:49;99712.91;;;19.26;24.87
43298;BME280;28892;55.640;37.532;2023-04-19T07:56:15;99722.16;;;18.74;24.79
43298;BME280;28892;55.640;37.532;2023-04-19T07:58:41;99724.56;;;18.64;25.21
43298;BME280;28892;55.640;37.532;2023-04-19T08:01:07;99720.38;;;19.24;24.92
43298;BME280;28892;55.640;37.532;2023-04-19T08:03:33;99711.72;;;19.52;25.45
43298;BME280;28892;55.640;37.532;2023-04-19T08:06:00;99711.22;;;19.86;24.52
43298;BME280;28892;55.640;37.532;2023-04-19T08:08:27;99706.47;;;20.24;23.98
43298;BME280;28892;55.640;37.532;2023-04-19T08:10:53;99696.97;;;20.57;24.23
43298;BME280;28892;55.640;37.532;2023-04-19T08:13:21;99712.75;;;20.89;22.83
43298;BME280;28892;55.640;37.532;2023-04-19T08:15:48;99729.19;;;20.76;22.90
43298;BME280;28892;55.640;37.532;2023-04-19T08:18:14;99719.56;;;20.68;23.26
43298;BME280;28892;55.640;37.532;2023-04-19T08:20:40;99708.19;;;20.66;23.23
43298;BME280;28892;55.640;37.532;2023-04-19T08:23:09;99716.59;;;21.05;23.06
43298;BME280;28892;55.640;37.532;2023-04-19T08:25:36;99711.13;;;21.17;22.57
43298;BME280;28892;55.640;37.532;2023-04-19T08:28:02;99716.28;;;21.19;22.73
43298;BME280;28892;55.640;37.532;2023-04-19T08:30:36;99725.94;;;21.15;22.69
43298;BME280;28892;55.640;37.532;2023-04-19T08:33:04;99722.13;;;21.28;22.07
43298;BME280;28892;55.640;37.532;2023-04-19T08:35:30;99707.53;;;21.12;22.48
43298;BME280;28892;55.640;37.532;2023-04-19T08:37:56;99710.91;;;21.19;22.37
43298;BME280;28892;55.640;37.532;2023-04-19T08:40:23;99711.09;;;21.58;21.84
43298;BME280;28892;55.640;37.532;2023-04-19T08:42:51;99708.22;;;21.65;21.82
43298;BME280;28892;55.640;37.532;2023-04-19T08:45:19;99712.72;;;21.59;21.96
43298;BME280;28892;55.640;37.532;2023-04-19T08:47:46;99724.19;;;21.67;21.55
43298;BME280;28892;55.640;37.532;2023-04-19T08:50:14;99718.72;;;22.13;21.34
43298;BME280;28892;55.640;37.532;2023-04-19T08:52:40;99716.00;;;22.30;20.97
43298;BME280;28892;55.640;37.532;2023-04-19T08:55:07;99710.91;;;22.11;21.04
43298;BME280;28892;55.640;37.532;2023-04-19T08:57:34;99708.34;;;22.04;21.64
43298;BME280;28892;55.640;37.532;2023-04-19T09:00:02;99708.50;;;22.49;20.92
43298;BME280;28892;55.640;37.532;2023-04-19T09:02:53;99704.59;;;23.07;19.99
43298;BME280;28892;55.640;37.532;2023-04-19T09:05:20;99706.53;;;22.67;19.92
43298;BME280;28892;55.640;37.532;2023-04-19T09:07:47;99711.91;;;22.62;20.25
43298;BME280;28892;55.640;37.532;2023-04-19T09:10:15;99677.31;;;22.64;20.83
43298;BME280;28892;55.640;37.532;2023-04-19T09:12:42;99685.56;;;22.74;20.04
43298;BME280;28892;55.640;37.532;2023-04-19T09:15:09;99682.47;;;22.65;19.64
43298;BME280;28892;55.640;37.532;2023-04-19T09:17:35;99691.09;;;22.45;20.03
43298;BME280;28892;55.640;37.532;2023-04-19T09:20:02;99696.91;;;22.54;20.00
43298;BME280;28892;55.640;37.532;2023-04-19T09:22:31;99697.25;;;22.80;19.75
43298;BME280;28892;55.640;37.532;2023-04-19T09:24:57;99702.59;;;22.74;19.38
43298;BME280;28892;55.640;37.532;2023-04-19T09:27:27;99695.56;;;22.34;20.04
43298;BME280;28892;55.640;37.532;2023-04-19T09:29:55;99689.41;;;22.22;20.19
43298;BME280;28892;55.640;37.532;2023-04-19T09:32:22;99686.75;;;22.61;19.75
43298;BME280;28892;55.640;37.532;2023-04-19T09:34:58;99695.88;;;22.99;19.82
43298;BME280;28892;55.640;37.532;2023-04-19T09:37:25;99679.13;;;22.80;19.72
43298;BME280;28892;55.640;37.532;2023-04-19T09:39:52;99685.94;;;22.83;19.67
43298;BME280;28892;55.640;37.532;2023-04-19T09:42:18;99667.44;;;23.24;19.24
43298;BME280;28892;55.640;37.532;2023-04-19T09:44:58;99678.75;;;23.43;19.24
43298;BME280;28892;55.640;37.532;2023-04-19T09:47:26;99675.81;;;23.50;19.14
43298;BME280;28892;55.640;37.532;2023-04-19T09:50:05;99671.56;;;23.92;19.19
43298;BME280;28892;55.640;37.532;2023-04-19T09:52:32;99675.84;;;23.83;18.09
43298;BME280;28892;55.640;37.532;2023-04-19T09:55:03;99665.56;;;23.85;19.23
43298;BME280;28892;55.640;37.532;2023-04-19T09:57:31;99668.28;;;23.52;18.56
43298;BME280;28892;55.640;37.532;2023-04-19T09:59:58;99673.03;;;23.40;19.05
43298;BME280;28892;55.640;37.532;2023-04-19T10:02:26;99675.38;;;23.58;19.01
43298;BME280;28892;55.640;37.532;2023-04-19T10:04:56;99676.28;;;23.69;18.65
43298;BME280;28892;55.640;37.532;2023-04-19T10:07:23;99666.78;;;23.67;18.83
43298;BME280;28892;55.640;37.532;2023-04-19T10:09:50;99670.66;;;23.21;18.80
43298;BME280;28892;55.640;37.532;2023-04-19T10:12:18;99671.56;;;23.05;18.94
43298;BME280;28892;55.640;37.532;2023-04-19T10:14:45;99665.28;;;23.26;18.82
43298;BME280;28892;55.640;37.532;2023-04-19T10:17:11;99664.63;;;23.69;18.75
43298;BME280;28892;55.640;37.532;2023-04-19T10:19:38;99670.38;;;23.78;18.64
43298;BME280;28892;55.640;37.532;2023-04-19T10:22:05;99644.38;;;24.14;19.01
43298;BME280;28892;55.640;37.532;2023-04-19T10:24:32;99639.84;;;24.25;18.92
43298;BME280;28892;55.640;37.532;2023-04-19T10:27:12;99657.00;;;24.47;18.44
43298;BME280;28892;55.640;37.532;2023-04-19T10:32:20;99642.66;;;24.51;18.38
43298;BME280;28892;55.640;37.532;2023-04-19T10:34:51;99650.94;;;24.24;18.33
43298;BME280;28892;55.640;37.532;2023-04-19T10:37:21;99660.63;;;24.14;18.69
43298;BME280;28892;55.640;37.532;2023-04-19T10:39:50;99657.59;;;24.59;18.06
43298;BME280;28892;55.640;37.532;2023-04-19T10:42:16;99646.72;;;24.00;18.69
43298;BME280;28892;55.640;37.532;2023-04-19T10:48:02;99655.56;;;23.91;18.53
43298;BME280;28892;55.640;37.532;2023-04-19T10:50:29;99659.75;;;23.71;18.70
43298;BME280;28892;55.640;37.532;2023-04-19T10:52:55;99653.66;;;23.53;18.97
43298;BME280;28892;55.640;37.532;2023-04-19T10:55:21;99647.75;;;23.62;19.09
43298;BME280;28892;55.640;37.532;2023-04-19T10:58:05;99642.47;;;23.77;18.71
43298;BME280;28892;55.640;37.532;2023-04-19T11:00:35;99640.94;;;23.54;19.14
43298;BME280;28892;55.640;37.532;2023-04-19T11:06:17;99632.50;;;24.21;18.62
43298;BME280;28892;55.640;37.532;2023-04-19T11:08:52;99636.28;;;24.25;18.94
43298;BME280;28892;55.640;37.532;2023-04-19T11:11:39;99633.22;;;24.11;19.07
43298;BME280;28892;55.640;37.532;2023-04-19T11:14:06;99635.44;;;24.14;19.33
43298;BME280;28892;55.640;37.532;2023-04-19T11:16:33;99629.78;;;23.83;18.49
43298;BME280;28892;55.640;37.532;2023-04-19T11:18:58;99630.72;;;23.99;19.31
43298;BME280;28892;55.640;37.532;2023-04-19T11:21:24;99620.00;;;23.77;19.59
43298;BME280;28892;55.640;37.532;2023-04-19T11:24:11;99613.81;;;24.24;18.54
43298;BME280;28892;55.640;37.532;2023-04-19T11:26:46;99628.03;;;24.04;19.10
43298;BME280;28892;55.640;37.532;2023-04-19T11:29:15;99627.13;;;25.16;19.17
43298;BME280;28892;55.640;37.532;2023-04-19T11:31:45;99625.75;;;24.97;18.92
43298;BME280;28892;55.640;37.532;2023-04-19T11:34:14;99612.19;;;25.03;18.62
43298;BME280;28892;55.640;37.532;2023-04-19T11:36:51;99606.78;;;25.23;18.34
43298;BME280;28892;55.640;37.532;2023-04-19T11:39:18;99619.13;;;24.62;18.85
43298;BME280;28892;55.640;37.532;2023-04-19T11:41:44;99601.31;;;24.82;18.36
43298;BME280;28892;55.640;37.532;2023-04-19T11:44:13;99611.13;;;25.24;18.31
43298;BME280;28892;55.640;37.532;2023-04-19T11:46:39;99613.00;;;24.88;18.80
43298;BME280;28892;55.640;37.532;2023-04-19T11:49:05;99616.69;;;24.66;18.37
43298;BME280;28892;55.640;37.532;2023-04-19T11:51:31;99612.97;;;24.24;18.43
43298;BME280;28892;55.640;37.532;2023-04-19T11:53:57;99601.16;;;24.40;18.47
43298;BME280;28892;55.640;37.532;2023-04-19T11:56:23;99593.53;;;24.37;18.78
43298;BME280;28892;55.640;37.532;2023-04-19T11:58:56;99601.47;;;24.60;18.63
43298;BME280;28892;55.640;37.532;2023-04-19T12:01:22;99594.97;;;24.55;18.46
43298;BME280;28892;55.640;37.532;2023-04-19T12:03:51;99596.84;;;24.55;19.35
43298;BME280;28892;55.640;37.532;2023-04-19T12:06:21;99591.34;;;24.34;18.46
43298;BME280;28892;55.640;37.532;2023-04-19T12:08:54;99575.16;;;24.55;18.78
43298;BME280;28892;55.640;37.532;2023-04-19T12:11:25;99592.69;;;24.26;18.65
43298;BME280;28892;55.640;37.532;2023-04-19T12:14:11;99586.31;;;23.62;19.00
43298;BME280;28892;55.640;37.532;2023-04-19T12:16:38;99583.50;;;23.19;19.14
43298;BME280;28892;55.640;37.532;2023-04-19T12:19:17;99604.34;;;23.46;19.41
43298;BME280;28892;55.640;37.532;2023-04-19T12:21:46;99597.75;;;23.37;19.22
43298;BME280;28892;55.640;37.532;2023-04-19T12:24:14;99596.94;;;23.69;19.35
43298;BME280;28892;55.640;37.532;2023-04-19T12:26:56;99587.06;;;23.90;18.66
43298;BME280;28892;55.640;37.532;2023-04-19T12:29:22;99572.56;;;23.69;18.96
43298;BME280;28892;55.640;37.532;2023-04-19T12:31:51;99586.13;;;23.36;18.83
43298;BME280;28892;55.640;37.532;2023-04-19T12:34:19;99571.66;;;23.25;19.22
43298;BME280;28892;55.640;37.532;2023-04-19T12:36:45;99577.72;;;23.33;18.89
43298;BME280;28892;55.640;37.532;2023-04-19T12:39:14;99580.88;;;22.97;19.21
43298;BME280;28892;55.640;37.532;2023-04-19T12:41:40;99592.50;;;22.47;19.17
43298;BME280;28892;55.640;37.532;2023-04-19T12:44:08;99564.16;;;21.88;19.98
43298;BME280;28892;55.640;37.532;2023-04-19T12:49:01;99565.19;;;21.31;20.42
43298;BME280;28892;55.640;37.532;2023-04-19T12:51:27;99567.88;;;21.14;21.36
43298;BME280;28892;55.640;37.532;2023-04-19T12:53:55;99564.31;;;20.96;21.01
43298;BME280;28892;55.640;37.532;2023-04-19T12:56:21;99573.91;;;21.21;21.50
43298;BME280;28892;55.640;37.532;2023-04-19T12:58:50;99560.25;;;21.11;21.15
43298;BME280;28892;55.640;37.532;2023-04-19T13:01:16;99558.22;;;21.35;21.37
43298;BME280;28892;55.640;37.532;2023-04-19T13:03:45;99555.13;;;21.43;20.52
43298;BME280;28892;55.640;37.532;2023-04-19T13:06:11;99551.19;;;21.51;20.87
43298;BME280;28892;55.640;37.532;2023-04-19T13:08:41;99558.88;;;21.59;20.38
43298;BME280;28892;55.640;37.532;2023-04-19T13:11:08;99548.00;;;21.54;20.70